createdAt,value
2023-01-28T00:01:44.973Z,55499.69
2023-01-28T00:04:13.367Z,55519.56
2023-01-28T00:06:41.718Z,55561.34
2023-01-28T00:09:10.076Z,55595.16
2023-01-28T00:11:39.922Z,55583.22
2023-01-28T00:14:08.457Z,55682.69
2023-01-28T00:16:37.140Z,55650.88
2023-01-28T00:19:05.490Z,55607.09
2023-01-28T00:21:33.818Z,55549.41
2023-01-28T00:24:02.173Z,55499.69
2023-01-28T00:26:30.500Z,55440.00
2023-01-28T00:29:00.196Z,55493.72
2023-01-28T00:31:29.348Z,55352.47
2023-01-28T00:33:58.400Z,55360.44
2023-01-28T00:36:28.450Z,55332.59
2023-01-28T00:38:58.928Z,55308.72
2023-01-28T00:41:31.049Z,55280.88
2023-01-28T00:44:01.306Z,55288.84
2023-01-28T00:46:30.922Z,55247.06
2023-01-28T00:48:59.401Z,55203.31
2023-01-28T00:51:27.880Z,55187.38
2023-01-28T00:53:56.567Z,55203.31
2023-01-28T00:56:25.112Z,55181.41
2023-01-28T00:58:53.868Z,55177.44
2023-01-28T01:01:25.072Z,55097.88
2023-01-28T01:03:57.846Z,55066.06
2023-01-28T01:06:26.773Z,55002.41
2023-01-28T01:08:55.134Z,54942.75
2023-01-28T01:11:23.516Z,54992.47
2023-01-28T01:13:54.963Z,54934.78
2023-01-28T01:16:27.008Z,54914.91
2023-01-28T01:18:56.192Z,54863.19
2023-01-28T01:21:27.668Z,54916.88
2023-01-28T01:23:57.236Z,54883.06
2023-01-28T01:26:27.459Z,54877.09
2023-01-28T01:28:56.340Z,54906.94
2023-01-28T01:31:26.159Z,54825.41
2023-01-28T01:33:54.678Z,54895.00
2023-01-28T01:36:23.840Z,54843.28
2023-01-28T01:38:55.358Z,54823.41
2023-01-28T01:41:27.693Z,54879.09
2023-01-28T01:43:58.487Z,54855.22
2023-01-28T01:46:34.930Z,54906.94
2023-01-28T01:49:15.679Z,54855.22
2023-01-28T01:51:46.356Z,54839.31
2023-01-28T01:54:15.627Z,54805.50
2023-01-28T01:56:46.016Z,54843.28
2023-01-28T01:59:16.923Z,54815.47
2023-01-28T02:01:47.092Z,54900.97
2023-01-28T02:04:21.410Z,54813.47
2023-01-28T02:06:50.125Z,54801.53
2023-01-28T02:09:25.221Z,54795.56
2023-01-28T02:11:56.266Z,54785.63
2023-01-28T02:14:31.433Z,54811.47
2023-01-28T02:17:03.250Z,54783.63
2023-01-28T02:19:38.236Z,54708.06
2023-01-28T02:22:26.252Z,54708.06
2023-01-28T02:25:31.453Z,54704.09
2023-01-28T02:28:12.604Z,54692.16
2023-01-28T02:30:45.975Z,54733.91
2023-01-28T02:33:19.423Z,54751.81
2023-01-28T02:35:51.175Z,54680.22
2023-01-28T02:38:25.164Z,54672.25
2023-01-28T02:41:07.058Z,54678.22
2023-01-28T02:43:38.937Z,54652.38
2023-01-28T02:46:36.629Z,54696.13
2023-01-28T02:49:07.887Z,54664.31
2023-01-28T02:51:47.862Z,54636.47
2023-01-28T02:54:28.452Z,54636.47
2023-01-28T02:57:08.738Z,54664.31
2023-01-28T02:59:46.374Z,54640.44
2023-01-28T03:02:24.320Z,54650.38
2023-01-28T03:04:59.673Z,54680.22
2023-01-28T03:07:31.033Z,54694.13
2023-01-28T03:10:04.415Z,54680.22
2023-01-28T03:12:52.258Z,54678.22
2023-01-28T03:15:43.526Z,54684.19
2023-01-28T03:18:34.022Z,54716.00
2023-01-28T03:21:26.195Z,54684.19
2023-01-28T03:24:19.275Z,54672.25
2023-01-28T03:27:13.375Z,54656.34
2023-01-28T03:30:02.759Z,54652.38
2023-01-28T03:32:53.477Z,54672.25
2023-01-28T03:35:43.020Z,54672.25
2023-01-28T03:38:21.071Z,54664.31
2023-01-28T03:40:54.427Z,54670.28
2023-01-28T03:43:23.296Z,54678.22
2023-01-28T03:45:52.579Z,54696.13
2023-01-28T03:48:25.093Z,54672.25
2023-01-28T03:50:54.525Z,54648.41
2023-01-28T03:53:24.515Z,54652.38
2023-01-28T03:55:56.653Z,54688.16
2023-01-28T03:58:27.165Z,54698.13
2023-01-28T04:00:55.971Z,54674.25
2023-01-28T04:03:26.204Z,54668.28
2023-01-28T04:06:05.856Z,54696.13
2023-01-28T04:08:59.339Z,54686.19
2023-01-28T04:11:33.056Z,54702.09
2023-01-28T04:14:04.365Z,54700.09
2023-01-28T04:16:50.263Z,54670.28
2023-01-28T04:19:20.503Z,54664.31
2023-01-28T04:21:49.370Z,54694.13
2023-01-28T04:24:18.209Z,54612.59
2023-01-28T04:26:46.635Z,54578.78
2023-01-28T04:29:16.806Z,54628.50
2023-01-28T04:31:45.729Z,54578.78
2023-01-28T04:34:34.354Z,54580.78
2023-01-28T04:37:15.358Z,54584.75
2023-01-28T04:40:02.461Z,54558.91
2023-01-28T04:42:44.966Z,54560.91
2023-01-28T04:45:35.769Z,54560.91
2023-01-28T04:48:14.957Z,54513.16
2023-01-28T04:51:03.149Z,54529.06
2023-01-28T04:53:43.796Z,54568.84
2023-01-28T04:56:38.354Z,54560.91
2023-01-28T04:59:07.213Z,54592.72
2023-01-28T05:01:38.104Z,54541.00
2023-01-28T05:04:07.962Z,54588.75
2023-01-28T05:06:40.530Z,54584.75
2023-01-28T05:09:13.437Z,54572.81
2023-01-28T05:11:45.120Z,54566.84
2023-01-28T05:14:15.001Z,54529.06
2023-01-28T05:16:47.425Z,54570.84
2023-01-28T05:19:16.573Z,54544.97
2023-01-28T05:21:48.968Z,54554.94
2023-01-28T05:24:41.800Z,54509.19
2023-01-28T05:27:10.396Z,54499.25
2023-01-28T05:29:38.848Z,54521.13
2023-01-28T05:32:07.486Z,54493.28
2023-01-28T05:34:35.926Z,54521.13
2023-01-28T05:37:11.526Z,54481.34
2023-01-28T05:39:40.832Z,54527.09
2023-01-28T05:42:09.606Z,54509.19
2023-01-28T05:44:43.506Z,54515.16
2023-01-28T05:47:23.271Z,54525.09
2023-01-28T05:50:16.002Z,54457.47
2023-01-28T05:52:47.532Z,54487.31
2023-01-28T05:55:26.796Z,54473.41
2023-01-28T05:57:55.603Z,54451.53
2023-01-28T06:00:25.823Z,54465.44
2023-01-28T06:02:54.613Z,54491.28
2023-01-28T06:05:23.837Z,54437.59
2023-01-28T06:07:53.794Z,54451.53
2023-01-28T06:10:22.100Z,54485.31
2023-01-28T06:12:50.566Z,54499.25
2023-01-28T06:15:44.923Z,54453.50
2023-01-28T06:18:25.759Z,54439.59
2023-01-28T06:20:55.214Z,54477.38
2023-01-28T06:23:25.052Z,54447.53
2023-01-28T06:25:55.995Z,54463.44
2023-01-28T06:28:26.206Z,54443.56
2023-01-28T06:30:56.981Z,54453.50
2023-01-28T06:33:25.830Z,54461.47
2023-01-28T06:35:54.147Z,54473.41
2023-01-28T06:38:22.548Z,54433.63
2023-01-28T06:40:56.216Z,54433.63
2023-01-28T06:43:28.268Z,54451.53
2023-01-28T06:45:57.223Z,54461.47
2023-01-28T06:48:26.029Z,54465.44
2023-01-28T06:50:54.492Z,54449.53
2023-01-28T06:53:23.361Z,54455.50
2023-01-28T06:55:51.850Z,54471.41
2023-01-28T06:58:21.526Z,54479.34
2023-01-28T07:00:49.944Z,54467.44
2023-01-28T07:03:18.398Z,54433.63
2023-01-28T07:05:46.804Z,54413.72
2023-01-28T07:08:15.119Z,54451.53
2023-01-28T07:10:44.022Z,54441.56
2023-01-28T07:13:12.763Z,54439.59
2023-01-28T07:15:42.745Z,54461.47
2023-01-28T07:18:11.150Z,54453.50
2023-01-28T07:20:39.552Z,54481.34
2023-01-28T07:23:07.962Z,54437.59
2023-01-28T07:25:36.305Z,54499.25
2023-01-28T07:28:04.746Z,54421.69
2023-01-28T07:30:33.251Z,54459.47
2023-01-28T07:33:03.063Z,54475.38
2023-01-28T07:35:32.514Z,54469.41
2023-01-28T07:38:02.277Z,54477.38
2023-01-28T07:40:30.770Z,54437.59
2023-01-28T07:42:59.239Z,54461.47
2023-01-28T07:45:30.646Z,54439.59
2023-01-28T07:48:00.828Z,54455.50
2023-01-28T07:50:32.704Z,54491.28
2023-01-28T07:53:03.699Z,54493.28
2023-01-28T07:55:32.269Z,54435.59
2023-01-28T07:58:01.575Z,54455.50
2023-01-28T08:00:31.887Z,54447.53
2023-01-28T08:03:01.573Z,54425.66
2023-01-28T08:05:41.142Z,54455.50
2023-01-28T08:08:10.179Z,54457.47
2023-01-28T08:10:40.800Z,54473.41
2023-01-28T08:13:11.153Z,54423.69
2023-01-28T08:15:39.637Z,54457.47
2023-01-28T08:18:09.328Z,54453.50
2023-01-28T08:20:39.193Z,54453.50
2023-01-28T08:23:08.999Z,54451.53
2023-01-28T08:25:37.452Z,54429.66
2023-01-28T08:28:06.994Z,54417.72
2023-01-28T08:30:38.189Z,54459.47
2023-01-28T08:33:08.201Z,54475.38
2023-01-28T08:35:40.734Z,54451.53
2023-01-28T08:38:10.356Z,54459.47
2023-01-28T08:40:39.166Z,54445.56
2023-01-28T08:43:08.456Z,54401.81
2023-01-28T08:45:36.782Z,54397.81
2023-01-28T08:48:07.468Z,54457.47
2023-01-28T08:50:38.560Z,54377.94
2023-01-28T08:53:10.959Z,54433.63
2023-01-28T08:55:39.892Z,54397.81
2023-01-28T08:58:11.732Z,54429.66
2023-01-28T09:00:41.075Z,54427.66
2023-01-28T09:03:09.665Z,54405.78
2023-01-28T09:05:38.634Z,54393.84
2023-01-28T09:08:10.002Z,54403.78
2023-01-28T09:10:38.653Z,54387.88
2023-01-28T09:13:07.448Z,54413.72
2023-01-28T09:15:36.737Z,54437.59
2023-01-28T09:18:05.673Z,54393.84
2023-01-28T09:20:34.646Z,54389.88
2023-01-28T09:23:03.481Z,54405.78
2023-01-28T09:25:33.274Z,54405.78
2023-01-28T09:28:01.610Z,54358.06
2023-01-28T09:30:30.569Z,54385.91
2023-01-28T09:32:59.568Z,54369.97
2023-01-28T09:35:27.951Z,54356.06
2023-01-28T09:37:58.647Z,54391.84
2023-01-28T09:40:35.953Z,54379.94
2023-01-28T09:43:21.611Z,54403.78
2023-01-28T09:45:51.802Z,54369.97
2023-01-28T09:48:23.082Z,54393.84
2023-01-28T09:50:54.811Z,54371.97
2023-01-28T09:53:26.312Z,54344.13
2023-01-28T09:55:58.456Z,54362.03
2023-01-28T09:58:26.929Z,54381.91
2023-01-28T10:01:01.226Z,54397.81
2023-01-28T10:03:47.625Z,54356.06
2023-01-28T10:06:27.473Z,54381.91
2023-01-28T10:09:15.869Z,54350.09
2023-01-28T10:11:57.872Z,54320.28
2023-01-28T10:14:41.988Z,54338.16
2023-01-28T10:17:18.257Z,54328.22
2023-01-28T10:19:51.411Z,54340.16
2023-01-28T10:22:23.578Z,54326.25
2023-01-28T10:24:57.936Z,54326.25
2023-01-28T10:27:32.741Z,54292.44
2023-01-28T10:30:10.997Z,54362.03
2023-01-28T10:32:47.151Z,54320.28
2023-01-28T10:35:15.603Z,54358.06
2023-01-28T10:37:44.096Z,54360.03
2023-01-28T10:40:16.679Z,54324.25
2023-01-28T10:42:47.214Z,54342.16
2023-01-28T10:45:20.529Z,54336.19
2023-01-28T10:47:53.792Z,54342.16
2023-01-28T10:50:29.070Z,54318.28
2023-01-28T10:52:59.152Z,54314.31
2023-01-28T10:55:30.475Z,54290.44
2023-01-28T10:58:00.806Z,54302.38
2023-01-28T11:00:32.866Z,54286.47
2023-01-28T11:03:01.727Z,54296.41
2023-01-28T11:05:31.801Z,54302.38
2023-01-28T11:08:14.674Z,54286.47
2023-01-28T11:10:44.132Z,54296.41
2023-01-28T11:13:18.931Z,54304.38
2023-01-28T11:15:53.606Z,54304.38
2023-01-28T11:18:25.622Z,54282.50
2023-01-28T11:20:59.031Z,54232.78
2023-01-28T11:23:30.841Z,54286.47
2023-01-28T11:26:07.766Z,54262.59
2023-01-28T11:28:42.091Z,54242.72
2023-01-28T11:31:14.773Z,54282.50
2023-01-28T11:33:47.330Z,54270.56
2023-01-28T11:36:18.516Z,54290.44
2023-01-28T11:38:52.983Z,54288.44
2023-01-28T11:41:28.550Z,54282.50
2023-01-28T11:44:00.347Z,54308.34
2023-01-28T11:46:59.755Z,54286.47
2023-01-28T11:49:39.247Z,54294.41
2023-01-28T11:52:16.814Z,54274.53
2023-01-28T11:54:55.346Z,54266.59
2023-01-28T11:57:27.662Z,54246.69
2023-01-28T12:00:11.580Z,54230.78
2023-01-28T12:02:53.826Z,54282.50
2023-01-28T12:05:49.824Z,54258.63
2023-01-28T12:08:24.968Z,54262.59
2023-01-28T12:11:16.275Z,54248.69
2023-01-28T12:14:06.989Z,54258.63
2023-01-28T12:16:48.043Z,54246.69
2023-01-28T12:19:30.079Z,54250.69
2023-01-28T12:22:24.265Z,54230.78
2023-01-28T12:25:11.725Z,54232.78
2023-01-28T12:27:52.213Z,54266.59
2023-01-28T12:30:35.869Z,54238.75
2023-01-28T12:33:34.649Z,54258.63
2023-01-28T12:36:12.423Z,54254.66
2023-01-28T12:38:50.260Z,54260.63
2023-01-28T12:41:23.749Z,54230.78
2023-01-28T12:43:59.822Z,54282.50
2023-01-28T12:46:41.483Z,54183.06
2023-01-28T12:49:18.078Z,54230.78
2023-01-28T12:51:55.859Z,54187.03
2023-01-28T12:54:31.251Z,54210.91
2023-01-28T12:57:00.303Z,54218.84
2023-01-28T12:59:33.381Z,54210.91
2023-01-28T13:02:23.415Z,54226.81
2023-01-28T13:05:05.458Z,54254.66
2023-01-28T13:07:40.712Z,54212.88
2023-01-28T13:10:18.825Z,54193.00
2023-01-28T13:12:48.844Z,54222.84
2023-01-28T13:15:19.874Z,54171.13
2023-01-28T13:17:59.129Z,54171.13
2023-01-28T13:20:38.523Z,54214.88
2023-01-28T13:23:23.016Z,54155.22
2023-01-28T13:25:53.287Z,54179.09
2023-01-28T13:28:30.327Z,54179.09
2023-01-28T13:31:08.768Z,54202.94
2023-01-28T13:33:39.409Z,54173.13
2023-01-28T13:36:25.168Z,54191.03
2023-01-28T13:39:03.680Z,54155.22
2023-01-28T13:41:40.018Z,54143.28
2023-01-28T13:44:19.901Z,54212.88
2023-01-28T13:46:48.708Z,54177.09
2023-01-28T13:49:22.575Z,54196.97
2023-01-28T13:52:01.263Z,54175.13
2023-01-28T13:54:32.938Z,54195.00
2023-01-28T13:57:21.694Z,54167.16
2023-01-28T13:59:59.943Z,54189.03
2023-01-28T14:03:03.894Z,54191.03
2023-01-28T14:06:11.619Z,54202.94
2023-01-28T14:08:55.726Z,54210.91
2023-01-28T14:11:59.858Z,54246.69
2023-01-28T14:14:59.723Z,54222.84
2023-01-28T14:17:37.256Z,54208.91
2023-01-28T14:20:07.101Z,54226.81
2023-01-28T14:22:37.408Z,54185.06
2023-01-28T14:25:16.434Z,54185.06
2023-01-28T14:27:48.621Z,54195.00
2023-01-28T14:30:24.876Z,54196.97
2023-01-28T14:32:55.252Z,54191.03
2023-01-28T14:35:30.024Z,54175.13
2023-01-28T14:38:00.460Z,54193.00
2023-01-28T14:40:31.640Z,54181.06
2023-01-28T14:43:00.305Z,54163.19
2023-01-28T14:45:49.906Z,54153.25
2023-01-28T14:48:33.643Z,54163.19
2023-01-28T14:51:21.340Z,54191.03
2023-01-28T14:54:22.069Z,54187.03
2023-01-28T14:57:06.391Z,54181.06
2023-01-28T14:59:42.293Z,54183.06
2023-01-28T15:02:20.112Z,54177.09
2023-01-28T15:04:49.129Z,54187.03
2023-01-28T15:07:20.487Z,54191.03
2023-01-28T15:09:49.644Z,54198.97
2023-01-28T15:12:19.723Z,54183.06
2023-01-28T15:14:49.082Z,54187.03
2023-01-28T15:17:26.615Z,54179.09
2023-01-28T15:19:57.493Z,54193.00
2023-01-28T15:22:30.313Z,54200.97
2023-01-28T15:24:59.318Z,54185.06
2023-01-28T15:27:31.386Z,54222.84
2023-01-28T15:30:02.594Z,54206.94
2023-01-28T15:32:33.036Z,54216.88
2023-01-28T15:35:02.369Z,54202.94
2023-01-28T15:37:31.066Z,54224.81
2023-01-28T15:40:06.069Z,54187.03
2023-01-28T15:42:36.485Z,54262.59
2023-01-28T15:45:05.797Z,54222.84
2023-01-28T15:47:35.572Z,54254.66
2023-01-28T15:50:07.130Z,54224.81
2023-01-28T15:52:37.900Z,54175.13
2023-01-28T15:55:08.473Z,54155.22
2023-01-28T15:57:38.534Z,54125.41
2023-01-28T16:00:15.013Z,54123.41
2023-01-28T16:02:49.062Z,54119.44
2023-01-28T16:05:30.138Z,54107.50
2023-01-28T16:08:05.127Z,54143.28
2023-01-28T16:10:33.786Z,54135.34
2023-01-28T16:13:07.406Z,54139.31
2023-01-28T16:15:38.526Z,54135.34
2023-01-28T16:18:08.285Z,54167.16
2023-01-28T16:20:36.910Z,54151.25
2023-01-28T16:23:18.877Z,54111.47
2023-01-28T16:25:47.490Z,54145.28
2023-01-28T16:28:20.995Z,54155.22
2023-01-28T16:30:49.624Z,54171.13
2023-01-28T16:33:21.141Z,54193.00
2023-01-28T16:36:05.476Z,54193.00
2023-01-28T16:38:36.193Z,54157.22
2023-01-28T16:41:05.269Z,54195.00
2023-01-28T16:46:07.900Z,54220.84
2023-01-28T16:48:37.809Z,54206.94
2023-01-28T16:51:06.505Z,54202.94
2023-01-28T16:53:35.534Z,54169.16
2023-01-28T16:56:04.154Z,54218.84
2023-01-28T16:58:32.528Z,54218.84
2023-01-28T17:01:02.797Z,54250.69
2023-01-28T17:03:31.409Z,54254.66
2023-01-28T17:05:59.951Z,54250.69
2023-01-28T17:08:28.669Z,54270.56
2023-01-28T17:10:57.641Z,54266.59
2023-01-28T17:13:26.464Z,54270.56
2023-01-28T17:15:55.032Z,54276.53
2023-01-28T17:18:26.271Z,54286.47
2023-01-28T17:20:55.127Z,54294.41
2023-01-28T17:23:24.359Z,54308.34
2023-01-28T17:25:52.789Z,54292.44
2023-01-28T17:28:21.329Z,54252.66
2023-01-28T17:30:49.956Z,54200.97
2023-01-28T17:33:18.500Z,54230.78
2023-01-28T17:35:51.474Z,54254.66
2023-01-28T17:38:19.874Z,54242.72
2023-01-28T17:40:48.808Z,54258.63
2023-01-28T17:43:17.655Z,54258.63
2023-01-28T17:45:47.144Z,54262.59
2023-01-28T17:48:15.776Z,54264.59
2023-01-28T17:50:44.251Z,54280.50
2023-01-28T17:53:14.208Z,54296.41
2023-01-28T17:55:42.788Z,54310.34
2023-01-28T17:58:11.400Z,54326.25
2023-01-28T18:00:40.076Z,54316.28
2023-01-28T18:03:08.667Z,54346.13
2023-01-28T18:05:37.268Z,54358.06
2023-01-28T18:08:06.189Z,54326.25
2023-01-28T18:10:36.769Z,54290.44
2023-01-28T18:13:05.386Z,54342.16
2023-01-28T18:15:33.884Z,54375.94
2023-01-28T18:18:02.302Z,54407.78
2023-01-28T18:20:30.673Z,54350.09
2023-01-28T18:22:59.139Z,54366.00
2023-01-28T18:25:27.630Z,54373.97
2023-01-28T18:27:57.383Z,54403.78
2023-01-28T18:30:25.943Z,54389.88
2023-01-28T18:32:54.263Z,54415.72
2023-01-28T18:35:22.607Z,54433.63
2023-01-28T18:37:53.905Z,54409.75
2023-01-28T18:40:22.630Z,54449.53
2023-01-28T18:42:50.989Z,54387.88
2023-01-28T18:45:22.434Z,54409.75
2023-01-28T18:47:50.938Z,54425.66
2023-01-28T18:50:19.561Z,54475.38
2023-01-28T18:52:48.081Z,54445.56
2023-01-28T18:55:16.831Z,54465.44
2023-01-28T18:57:45.537Z,54453.50
2023-01-28T19:00:14.754Z,54457.47
2023-01-28T19:02:44.725Z,54483.34
2023-01-28T19:05:13.593Z,54489.31
2023-01-28T19:07:42.468Z,54461.47
2023-01-28T19:10:11.760Z,54505.22
2023-01-28T19:12:40.644Z,54509.19
2023-01-28T19:15:10.245Z,54465.44
2023-01-28T19:17:38.777Z,54525.09
2023-01-28T19:20:10.429Z,54521.13
2023-01-28T19:22:40.348Z,54550.94
2023-01-28T19:25:11.380Z,54485.31
2023-01-28T19:27:39.912Z,54539.03
2023-01-28T19:30:10.264Z,54521.13
2023-01-28T19:32:38.706Z,54517.16
2023-01-28T19:35:09.255Z,54608.63
2023-01-28T19:37:37.745Z,54660.31
2023-01-28T19:40:07.402Z,54628.50
2023-01-28T19:42:35.910Z,54628.50
2023-01-28T19:45:06.084Z,54652.38
2023-01-28T19:47:34.471Z,54660.31
2023-01-28T19:50:03.033Z,54614.59
2023-01-28T19:52:33.382Z,54632.50
2023-01-28T19:55:02.194Z,54620.56
2023-01-28T19:57:30.875Z,54620.56
2023-01-28T19:59:59.789Z,54606.63
2023-01-28T20:02:28.883Z,54646.41
2023-01-28T20:05:00.875Z,54660.31
2023-01-28T20:07:29.986Z,54676.25
2023-01-28T20:10:00.107Z,54702.09
2023-01-28T20:12:29.638Z,54678.22
2023-01-28T20:15:01.094Z,54731.94
2023-01-28T20:17:34.357Z,54708.06
2023-01-28T20:20:03.386Z,54727.94
2023-01-28T20:22:33.781Z,54720.00
2023-01-28T20:25:03.829Z,54712.03
2023-01-28T20:27:32.440Z,54721.97
2023-01-28T20:30:01.278Z,54682.22
2023-01-28T20:32:29.882Z,54644.41
2023-01-28T20:34:58.259Z,54710.06
2023-01-28T20:37:26.731Z,54692.16
2023-01-28T20:39:55.509Z,54755.78
2023-01-28T20:42:25.752Z,54769.72
2023-01-28T20:44:54.241Z,54809.50
2023-01-28T20:47:22.837Z,54835.34
2023-01-28T20:49:51.376Z,54779.66
2023-01-28T20:52:19.746Z,54775.69
2023-01-28T20:54:49.478Z,54845.28
2023-01-28T20:57:18.696Z,54839.31
2023-01-28T20:59:48.725Z,54859.22
2023-01-28T21:02:17.729Z,54823.41
2023-01-28T21:04:46.391Z,54849.25
2023-01-28T21:07:14.836Z,54851.25
2023-01-28T21:09:43.396Z,54725.97
2023-01-28T21:12:11.774Z,54759.78
2023-01-28T21:14:40.318Z,54729.94
2023-01-28T21:17:10.475Z,54725.97
2023-01-28T21:19:38.913Z,54791.59
2023-01-28T21:22:07.976Z,54843.28
2023-01-28T21:24:36.468Z,54940.75
2023-01-28T21:27:04.867Z,54938.75
2023-01-28T21:29:33.539Z,54954.69
2023-01-28T21:32:02.386Z,55026.28
2023-01-28T21:34:32.406Z,55052.13
2023-01-28T21:37:01.253Z,54958.66
2023-01-28T21:39:30.336Z,54918.88
2023-01-28T21:41:59.655Z,54895.00
2023-01-28T21:44:28.191Z,54962.63
2023-01-28T21:46:56.878Z,55008.38
2023-01-28T21:49:25.332Z,54962.63
2023-01-28T21:51:55.505Z,54899.00
2023-01-28T21:54:24.023Z,54942.75
2023-01-28T21:56:53.277Z,55028.25
2023-01-28T21:59:30.775Z,55052.13
2023-01-28T22:02:01.468Z,54998.44
2023-01-28T22:04:33.919Z,55079.97
2023-01-28T22:07:04.920Z,55083.97
2023-01-28T22:09:34.857Z,55133.69
2023-01-28T22:12:05.302Z,55117.78
2023-01-28T22:14:33.949Z,55048.16
2023-01-28T22:17:02.375Z,55062.09
2023-01-28T22:19:31.102Z,55070.03
2023-01-28T22:21:59.549Z,55089.94
2023-01-28T22:24:30.662Z,55133.69
2023-01-28T22:26:59.786Z,55062.09
2023-01-28T22:29:28.331Z,55018.31
2023-01-28T22:31:56.784Z,55028.25
2023-01-28T22:34:26.319Z,55054.13
2023-01-28T22:36:54.851Z,55121.75
2023-01-28T22:39:23.399Z,55187.38
2023-01-28T22:41:53.614Z,55175.44
2023-01-28T22:44:22.060Z,55163.53
2023-01-28T22:46:50.604Z,55117.78
2023-01-28T22:49:19.268Z,55076.00
2023-01-28T22:51:47.703Z,55083.97
2023-01-28T22:54:16.148Z,55165.50
2023-01-28T22:56:44.672Z,55264.97
2023-01-28T22:59:14.511Z,55131.69
2023-01-28T23:01:42.970Z,55060.09
2023-01-28T23:04:12.239Z,55231.16
2023-01-28T23:06:40.704Z,55147.59
2023-01-28T23:09:09.296Z,55175.44
2023-01-28T23:11:37.778Z,55135.66
2023-01-28T23:14:23.723Z,55056.13
2023-01-28T23:17:11.309Z,55115.78
2023-01-28T23:19:57.308Z,55225.19
2023-01-28T23:22:49.300Z,55241.09
2023-01-28T23:25:18.597Z,55475.81
2023-01-28T23:27:47.135Z,55507.63
2023-01-28T23:30:16.561Z,55344.53
2023-01-28T23:32:49.772Z,55368.41
2023-01-28T23:35:19.138Z,55440.00
2023-01-28T23:37:48.241Z,55416.13
2023-01-28T23:40:17.843Z,55348.50
2023-01-28T23:42:50.863Z,55318.66
2023-01-28T23:45:19.990Z,55344.53
2023-01-28T23:47:50.166Z,55316.69
2023-01-28T23:50:19.305Z,55318.66
2023-01-28T23:52:48.293Z,55209.25
2023-01-28T23:55:17.129Z,55424.09
2023-01-28T23:57:45.617Z,55579.25
